EBAM weather

Amougies Airfield
Mont-de-l'Enclus, Hainaut, Belgium

Public forecast

Using degrees Celsius for public forecast. Weather courtesy of forecast.io.

Closest aviation weather report (METAR) to Amougies Airfield

Closest report is Chièvres Air Base, 16.5 nm (30.5 km) SE. Retrieved 2019/12/09 15:15 UTC (6 minutes ago):

EBCV 091515Z AUTO 31017KT 4200 -RA BKN022/// BKN033/// 06/04 Q1011 GRN

Closest aviation forecast (TAF) to Amougies Airfield

Forecast is more than 12 hours old.

Closest forecast is Chièvres Air Base, 16.5 nm (30.5 km) SE. Retrieved 2019/12/01 19:15 UTC (8 days ago):

TAF TAF EBCV 011609Z 0119/0207 03008KT 9999 BKN100 BECMG 0119/0121 7000 FEW080 TEMPO 0200/0207 4000 BR SCT022 BY EBWM